createdAt,value
2023-03-29T00:00:49.647Z,98.40
2023-03-29T00:03:17.190Z,98.31
2023-03-29T00:05:44.770Z,98.15
2023-03-29T00:08:14.280Z,98.01
2023-03-29T00:10:41.832Z,97.90
2023-03-29T00:13:08.603Z,97.83
2023-03-29T00:15:36.235Z,97.81
2023-03-29T00:18:02.639Z,97.82
2023-03-29T00:20:29.142Z,97.81
2023-03-29T00:22:55.698Z,97.65
2023-03-29T00:25:22.201Z,98.80
2023-03-29T00:27:48.750Z,99.32
2023-03-29T00:30:15.946Z,98.06
2023-03-29T00:32:42.920Z,97.98
2023-03-29T00:35:10.019Z,98.01
2023-03-29T00:37:37.877Z,97.82
2023-03-29T00:40:11.685Z,97.73
2023-03-29T00:42:38.435Z,97.93
2023-03-29T00:45:25.130Z,98.10
2023-03-29T00:47:59.963Z,98.04
2023-03-29T00:50:30.806Z,97.88
2023-03-29T00:53:01.496Z,97.84
2023-03-29T00:55:33.362Z,98.26
2023-03-29T00:58:00.949Z,97.72
2023-03-29T01:00:34.994Z,98.10
2023-03-29T01:03:07.079Z,97.77
2023-03-29T01:05:40.634Z,97.38
2023-03-29T01:08:17.931Z,97.77
2023-03-29T01:11:26.639Z,97.09
2023-03-29T01:13:56.049Z,97.18
2023-03-29T01:16:25.758Z,96.70
2023-03-29T01:18:52.362Z,96.92
2023-03-29T01:21:23.463Z,96.45
2023-03-29T01:23:58.216Z,95.43
2023-03-29T01:26:43.674Z,95.14
2023-03-29T01:29:15.382Z,95.58
2023-03-29T01:31:47.054Z,95.57
2023-03-29T01:34:52.559Z,94.45
2023-03-29T01:37:34.195Z,93.72
2023-03-29T01:40:01.119Z,94.31
2023-03-29T01:42:36.373Z,93.58
2023-03-29T01:45:20.137Z,93.13
2023-03-29T01:48:03.472Z,92.59
2023-03-29T01:50:38.642Z,92.21
2023-03-29T01:53:10.672Z,92.50
2023-03-29T01:55:45.900Z,92.15
2023-03-29T01:58:15.005Z,92.93
2023-03-29T02:00:43.740Z,91.92
2023-03-29T02:03:10.574Z,91.21
2023-03-29T02:05:39.211Z,91.64
2023-03-29T02:08:09.150Z,90.88
2023-03-29T02:10:36.781Z,91.07
2023-03-29T02:13:04.234Z,92.01
2023-03-29T02:15:30.706Z,93.79
2023-03-29T02:17:57.227Z,92.43
2023-03-29T02:20:31.900Z,92.33
2023-03-29T02:23:12.400Z,92.54
2023-03-29T02:25:38.835Z,92.91
2023-03-29T02:28:06.731Z,94.06
2023-03-29T02:31:05.586Z,94.08
2023-03-29T02:33:34.985Z,93.53
2023-03-29T02:36:38.179Z,93.48
2023-03-29T02:39:06.038Z,93.64
2023-03-29T02:41:32.905Z,93.52
2023-03-29T02:44:01.194Z,93.23
2023-03-29T02:46:28.181Z,93.91
2023-03-29T02:48:56.910Z,93.29
2023-03-29T02:51:33.741Z,93.47
2023-03-29T02:54:05.918Z,93.56
2023-03-29T02:56:45.097Z,93.99
2023-03-29T02:59:12.398Z,94.25
2023-03-29T03:01:42.812Z,94.04
2023-03-29T03:04:13.147Z,94.40
2023-03-29T03:06:39.917Z,94.63
2023-03-29T03:09:07.485Z,94.87
2023-03-29T03:11:34.356Z,94.64
2023-03-29T03:14:00.900Z,95.46
2023-03-29T03:16:27.933Z,95.55
2023-03-29T03:18:55.581Z,95.19
2023-03-29T03:21:23.092Z,95.12
2023-03-29T03:23:49.695Z,95.81
2023-03-29T03:26:17.769Z,96.90
2023-03-29T03:28:45.730Z,96.30
2023-03-29T03:31:15.873Z,96.58
2023-03-29T03:33:42.476Z,96.46
2023-03-29T03:36:10.407Z,96.38
2023-03-29T03:38:38.247Z,96.88
2023-03-29T03:41:06.855Z,96.51
2023-03-29T03:43:34.138Z,96.51
2023-03-29T03:46:00.701Z,96.72
2023-03-29T03:48:27.322Z,96.76
2023-03-29T03:50:56.041Z,97.12
2023-03-29T03:53:23.551Z,97.09
2023-03-29T03:55:50.927Z,97.12
2023-03-29T03:58:18.363Z,97.03
2023-03-29T04:00:48.180Z,96.52
2023-03-29T04:03:15.666Z,97.16
2023-03-29T04:05:44.471Z,97.37
2023-03-29T04:08:14.894Z,97.36
2023-03-29T04:10:41.567Z,97.07
2023-03-29T04:13:08.290Z,96.84
2023-03-29T04:15:41.103Z,96.35
2023-03-29T04:18:07.798Z,96.46
2023-03-29T04:20:34.627Z,96.65
2023-03-29T04:23:01.613Z,96.97
2023-03-29T04:25:28.434Z,96.52
2023-03-29T04:27:54.870Z,96.58
2023-03-29T04:30:21.775Z,96.38
2023-03-29T04:32:48.719Z,96.55
2023-03-29T04:35:15.214Z,96.76
2023-03-29T04:37:41.782Z,96.58
2023-03-29T04:40:09.922Z,97.29
2023-03-29T04:42:37.586Z,97.38
2023-03-29T04:45:06.943Z,97.14
2023-03-29T04:47:36.212Z,97.53
2023-03-29T04:50:03.424Z,96.87
2023-03-29T04:52:32.963Z,97.40
2023-03-29T04:55:03.999Z,97.25
2023-03-29T04:57:30.759Z,97.29
2023-03-29T04:59:57.648Z,97.01
2023-03-29T05:02:24.118Z,96.97
2023-03-29T05:04:50.508Z,96.43
2023-03-29T05:07:18.146Z,97.47
2023-03-29T05:09:44.598Z,97.24
2023-03-29T05:12:11.061Z,97.01
2023-03-29T05:14:37.401Z,96.62
2023-03-29T05:17:04.986Z,96.87
2023-03-29T05:19:31.908Z,96.59
2023-03-29T05:21:59.087Z,96.64
2023-03-29T05:24:25.718Z,97.05
2023-03-29T05:26:52.274Z,96.73
2023-03-29T05:29:19.067Z,96.05
2023-03-29T05:31:46.821Z,96.54
2023-03-29T05:34:13.325Z,96.60
2023-03-29T05:36:39.749Z,95.90
2023-03-29T05:39:06.775Z,96.16
2023-03-29T05:41:33.626Z,96.32
2023-03-29T05:44:00.054Z,96.63
2023-03-29T05:46:26.972Z,96.62
2023-03-29T05:48:53.553Z,96.24
2023-03-29T05:51:24.467Z,95.37
2023-03-29T05:53:51.488Z,95.70
2023-03-29T05:56:18.897Z,95.98
2023-03-29T05:58:50.941Z,95.71
2023-03-29T06:01:18.203Z,95.55
2023-03-29T06:03:46.215Z,95.27
2023-03-29T06:06:16.092Z,95.52
2023-03-29T06:08:43.457Z,95.50
2023-03-29T06:11:11.495Z,94.99
2023-03-29T06:13:38.808Z,95.45
2023-03-29T06:16:06.376Z,95.33
2023-03-29T06:18:33.412Z,94.89
2023-03-29T06:21:02.000Z,94.49
2023-03-29T06:23:29.256Z,94.69
2023-03-29T06:25:56.464Z,94.75
2023-03-29T06:28:23.943Z,94.83
2023-03-29T06:30:50.570Z,94.55
2023-03-29T06:33:17.226Z,93.88
2023-03-29T06:35:47.499Z,94.28
2023-03-29T06:38:15.083Z,93.92
2023-03-29T06:40:43.194Z,93.59
2023-03-29T06:43:10.275Z,94.57
2023-03-29T06:45:38.566Z,93.53
2023-03-29T06:48:06.267Z,93.64
2023-03-29T06:50:33.020Z,93.84
2023-03-29T06:52:59.641Z,93.62
2023-03-29T06:55:27.098Z,93.16
2023-03-29T06:57:54.648Z,93.29
2023-03-29T07:00:39.364Z,93.86
2023-03-29T07:03:09.651Z,94.08
2023-03-29T07:05:37.157Z,94.23
2023-03-29T07:08:06.417Z,94.60
2023-03-29T07:10:38.304Z,94.19
2023-03-29T07:13:11.006Z,94.01
2023-03-29T07:15:37.593Z,93.50
2023-03-29T07:18:04.641Z,92.72
2023-03-29T07:20:32.046Z,92.67
2023-03-29T07:22:58.412Z,92.48
2023-03-29T07:25:26.140Z,92.42
2023-03-29T07:27:52.948Z,92.19
2023-03-29T07:30:23.235Z,93.10
2023-03-29T07:32:51.075Z,92.46
2023-03-29T07:35:18.421Z,92.68
2023-03-29T07:37:46.326Z,92.39
2023-03-29T07:40:18.694Z,92.84
2023-03-29T07:42:46.592Z,92.59
2023-03-29T07:45:16.348Z,92.16
2023-03-29T07:47:47.503Z,92.34
2023-03-29T07:50:14.554Z,92.99
2023-03-29T07:52:41.094Z,91.95
2023-03-29T07:55:10.277Z,91.65
2023-03-29T07:57:36.870Z,91.00
2023-03-29T08:00:16.972Z,90.31
2023-03-29T08:02:45.699Z,90.61
2023-03-29T08:05:14.132Z,90.05
2023-03-29T08:07:42.317Z,91.62
2023-03-29T08:10:11.542Z,90.33
2023-03-29T08:12:38.041Z,91.54
2023-03-29T08:15:05.490Z,90.91
2023-03-29T08:17:33.117Z,90.89
2023-03-29T08:19:59.587Z,90.45
2023-03-29T08:22:26.098Z,90.50
2023-03-29T08:24:52.870Z,90.02
2023-03-29T08:27:19.796Z,90.35
2023-03-29T08:29:46.609Z,89.87
2023-03-29T08:32:12.996Z,89.97
2023-03-29T08:34:39.378Z,90.89
2023-03-29T08:37:05.757Z,90.13
2023-03-29T08:39:32.488Z,89.44
2023-03-29T08:42:08.850Z,89.28
2023-03-29T08:44:54.517Z,89.54
2023-03-29T08:47:36.586Z,89.74
2023-03-29T08:50:03.207Z,89.16
2023-03-29T08:52:42.888Z,88.91
2023-03-29T08:55:24.460Z,89.27
2023-03-29T08:57:51.788Z,89.55
2023-03-29T09:00:24.389Z,89.22
2023-03-29T09:02:53.855Z,89.64
2023-03-29T09:05:27.336Z,90.01
2023-03-29T09:07:54.433Z,90.14
2023-03-29T09:10:28.043Z,90.68
2023-03-29T09:13:30.226Z,90.25
2023-03-29T09:16:32.999Z,90.38
2023-03-29T09:19:06.255Z,90.06
2023-03-29T09:21:55.896Z,90.66
2023-03-29T09:24:54.142Z,91.40
2023-03-29T09:27:27.417Z,90.85
2023-03-29T09:30:07.128Z,90.99
2023-03-29T09:32:51.313Z,90.59
2023-03-29T09:35:33.353Z,90.05
2023-03-29T09:38:00.647Z,90.25
2023-03-29T09:40:37.874Z,89.52
2023-03-29T09:43:13.646Z,89.19
2023-03-29T09:45:41.124Z,89.13
2023-03-29T09:48:15.428Z,88.90
2023-03-29T09:50:47.490Z,89.99
2023-03-29T09:53:18.672Z,88.52
2023-03-29T09:55:49.078Z,86.77
2023-03-29T09:58:20.378Z,88.28
2023-03-29T10:00:48.249Z,87.43
2023-03-29T10:03:29.597Z,88.61
2023-03-29T10:05:59.896Z,89.65
2023-03-29T10:08:35.875Z,89.79
2023-03-29T10:11:09.581Z,90.24
2023-03-29T10:13:50.897Z,89.12
2023-03-29T10:16:41.482Z,88.58
2023-03-29T10:19:22.328Z,87.59
2023-03-29T10:21:50.357Z,85.81
2023-03-29T10:24:24.588Z,85.55
2023-03-29T10:26:56.245Z,84.83
2023-03-29T10:29:24.584Z,85.25
2023-03-29T10:31:51.793Z,85.99
2023-03-29T10:34:18.868Z,86.24
2023-03-29T10:36:55.606Z,87.01
2023-03-29T10:39:22.979Z,87.53
2023-03-29T10:41:52.421Z,88.00
2023-03-29T10:44:34.220Z,87.28
2023-03-29T10:47:16.998Z,87.57
2023-03-29T10:49:47.801Z,88.80
2023-03-29T10:52:16.420Z,89.22
2023-03-29T10:54:43.684Z,89.50
2023-03-29T10:57:15.792Z,89.47
2023-03-29T10:59:52.965Z,89.99
2023-03-29T11:02:30.249Z,90.76
2023-03-29T11:05:19.233Z,89.46
2023-03-29T11:07:51.889Z,90.08
2023-03-29T11:10:36.531Z,90.54
2023-03-29T11:13:40.833Z,90.17
2023-03-29T11:16:45.223Z,91.97
2023-03-29T11:19:49.275Z,92.74
2023-03-29T11:22:21.770Z,95.04
2023-03-29T11:25:11.458Z,94.83
2023-03-29T11:27:44.909Z,95.53
2023-03-29T11:30:25.778Z,96.41
2023-03-29T11:33:24.127Z,95.98
2023-03-29T11:36:01.822Z,96.35
2023-03-29T11:38:59.372Z,95.55
2023-03-29T11:41:30.412Z,94.38
2023-03-29T11:44:10.298Z,94.45
2023-03-29T11:46:44.132Z,93.46
2023-03-29T11:49:32.194Z,92.96
2023-03-29T11:52:20.007Z,91.45
2023-03-29T11:54:55.547Z,91.72
2023-03-29T11:57:37.009Z,90.56
2023-03-29T12:00:12.845Z,90.63
2023-03-29T12:02:44.398Z,91.71
2023-03-29T12:05:24.403Z,91.64
2023-03-29T12:07:56.080Z,90.92
2023-03-29T12:10:29.019Z,91.06
2023-03-29T12:13:00.939Z,92.16
2023-03-29T12:15:33.540Z,91.45
2023-03-29T12:18:20.002Z,91.67
2023-03-29T12:20:52.176Z,92.03
2023-03-29T12:23:19.169Z,91.35
2023-03-29T12:26:04.092Z,91.29
2023-03-29T12:28:55.451Z,91.53
2023-03-29T12:31:42.372Z,91.93
2023-03-29T12:34:36.251Z,92.02
2023-03-29T12:37:14.652Z,93.20
2023-03-29T12:39:41.304Z,94.04
2023-03-29T12:42:16.939Z,94.93
2023-03-29T12:44:51.972Z,94.82
2023-03-29T12:47:25.234Z,95.45
2023-03-29T12:49:58.099Z,95.99
2023-03-29T12:52:30.418Z,96.43
2023-03-29T12:55:25.233Z,96.12
2023-03-29T12:58:05.060Z,96.73
2023-03-29T13:00:40.220Z,97.02
2023-03-29T13:03:27.585Z,96.63
2023-03-29T13:06:03.456Z,96.34
2023-03-29T13:08:39.939Z,95.69
2023-03-29T13:11:31.445Z,95.29
2023-03-29T13:14:01.408Z,95.76
2023-03-29T13:16:34.879Z,94.67
2023-03-29T13:19:09.656Z,94.93
2023-03-29T13:22:10.409Z,93.44
2023-03-29T13:24:55.619Z,93.77
2023-03-29T13:27:31.677Z,93.00
2023-03-29T13:30:11.546Z,93.48
2023-03-29T13:32:47.205Z,93.64
2023-03-29T13:35:41.314Z,92.88
2023-03-29T13:38:18.769Z,92.99
2023-03-29T13:40:54.359Z,93.40
2023-03-29T13:43:51.638Z,93.62
2023-03-29T13:46:23.239Z,93.18
2023-03-29T13:48:54.555Z,93.11
2023-03-29T13:51:27.958Z,92.28
2023-03-29T13:54:01.453Z,92.60
2023-03-29T13:56:43.177Z,92.09
2023-03-29T13:59:11.819Z,92.46
2023-03-29T14:01:54.520Z,92.29
2023-03-29T14:04:25.226Z,92.07
2023-03-29T14:06:54.383Z,91.62
2023-03-29T14:09:30.049Z,90.63
2023-03-29T14:11:58.779Z,90.04
2023-03-29T14:14:27.879Z,89.61
2023-03-29T14:16:56.259Z,90.17
2023-03-29T14:19:34.409Z,90.01
2023-03-29T14:22:02.306Z,89.83
2023-03-29T14:24:37.659Z,89.34
2023-03-29T14:27:06.894Z,89.40
2023-03-29T14:29:34.201Z,90.29
2023-03-29T14:32:11.847Z,90.50
2023-03-29T14:34:39.575Z,89.38
2023-03-29T14:37:08.911Z,89.35
2023-03-29T14:39:35.973Z,89.64
2023-03-29T14:42:02.656Z,88.89
2023-03-29T14:44:33.015Z,88.33
2023-03-29T14:47:01.427Z,87.57
2023-03-29T14:49:28.026Z,86.93
2023-03-29T14:51:55.635Z,86.33
2023-03-29T14:54:32.657Z,87.17
2023-03-29T14:57:03.278Z,86.67
2023-03-29T14:59:41.656Z,86.10
2023-03-29T15:02:23.305Z,85.73
2023-03-29T15:05:25.434Z,85.84
2023-03-29T15:07:55.809Z,85.59
2023-03-29T15:10:22.439Z,85.82
2023-03-29T15:12:50.068Z,85.30
2023-03-29T15:15:16.971Z,83.62
2023-03-29T15:17:51.827Z,84.21
2023-03-29T15:20:25.589Z,84.21
2023-03-29T15:22:59.286Z,84.13
2023-03-29T15:25:47.562Z,83.87
2023-03-29T15:28:27.625Z,83.96
2023-03-29T15:31:07.254Z,83.93
2023-03-29T15:33:38.228Z,83.69
2023-03-29T15:36:06.865Z,84.11
2023-03-29T15:38:43.120Z,84.11
2023-03-29T15:41:10.831Z,83.66
2023-03-29T15:43:37.480Z,83.16
2023-03-29T15:46:04.338Z,84.27
2023-03-29T15:48:33.820Z,83.50
2023-03-29T15:51:05.516Z,83.79
2023-03-29T15:53:33.196Z,84.14
2023-03-29T15:56:02.148Z,84.05
2023-03-29T15:58:33.543Z,83.69
2023-03-29T16:01:11.163Z,83.64
2023-03-29T16:03:38.482Z,84.51
2023-03-29T16:06:05.425Z,84.25
2023-03-29T16:08:32.058Z,84.35
2023-03-29T16:10:58.364Z,84.36
2023-03-29T16:13:24.717Z,84.36
2023-03-29T16:15:51.045Z,84.42
2023-03-29T16:18:17.399Z,84.97
2023-03-29T16:20:43.815Z,84.27
2023-03-29T16:23:11.438Z,84.95
2023-03-29T16:25:39.769Z,84.71
2023-03-29T16:28:08.909Z,84.98
2023-03-29T16:30:36.675Z,84.93
2023-03-29T16:33:06.308Z,85.11
2023-03-29T16:35:35.433Z,85.29
2023-03-29T16:38:01.884Z,85.78
2023-03-29T16:40:28.347Z,86.10
2023-03-29T16:42:54.808Z,85.90
2023-03-29T16:45:21.314Z,86.49
2023-03-29T16:47:47.904Z,87.18
2023-03-29T16:50:17.894Z,87.29
2023-03-29T16:52:46.101Z,87.62
2023-03-29T16:55:13.592Z,87.70
2023-03-29T16:57:40.154Z,88.06
2023-03-29T17:00:12.241Z,88.27
2023-03-29T17:02:38.699Z,88.91
2023-03-29T17:05:06.061Z,89.19
2023-03-29T17:07:33.528Z,89.54
2023-03-29T17:10:00.158Z,89.63
2023-03-29T17:12:26.821Z,89.81
2023-03-29T17:14:53.148Z,89.96
2023-03-29T17:17:19.640Z,90.15
2023-03-29T17:19:46.173Z,90.47
2023-03-29T17:22:12.584Z,90.39
2023-03-29T17:24:38.970Z,91.17
2023-03-29T17:27:05.293Z,91.23
2023-03-29T17:29:31.807Z,91.23
2023-03-29T17:31:58.393Z,91.50
2023-03-29T17:34:27.026Z,91.52
2023-03-29T17:36:54.015Z,92.14
2023-03-29T17:39:20.445Z,92.02
2023-03-29T17:41:47.320Z,91.80
2023-03-29T17:44:13.896Z,91.90
2023-03-29T17:46:40.257Z,92.55
2023-03-29T17:49:06.625Z,92.95
2023-03-29T17:51:32.974Z,92.89
2023-03-29T17:53:59.333Z,93.30
2023-03-29T17:56:26.536Z,93.53
2023-03-29T17:58:53.423Z,93.73
2023-03-29T18:01:20.348Z,93.75
2023-03-29T18:03:48.289Z,94.17
2023-03-29T18:06:17.995Z,94.97
2023-03-29T18:08:44.740Z,94.90
2023-03-29T18:11:22.296Z,95.56
2023-03-29T18:13:49.777Z,95.72
2023-03-29T18:16:16.374Z,95.76
2023-03-29T18:18:43.655Z,96.64
2023-03-29T18:21:10.816Z,96.77
2023-03-29T18:23:39.830Z,96.48
2023-03-29T18:26:07.334Z,96.92
2023-03-29T18:28:34.898Z,97.13
2023-03-29T18:31:01.278Z,97.20
2023-03-29T18:33:30.123Z,97.08
2023-03-29T18:35:56.510Z,97.60
2023-03-29T18:38:22.942Z,97.49
2023-03-29T18:40:50.416Z,97.57
2023-03-29T18:43:17.050Z,97.75
2023-03-29T18:45:44.398Z,98.05
2023-03-29T18:48:11.079Z,98.30
2023-03-29T18:50:38.672Z,98.32
2023-03-29T18:53:05.271Z,98.22
2023-03-29T18:55:31.641Z,98.42
2023-03-29T18:57:58.004Z,98.38
2023-03-29T19:00:24.471Z,98.17
2023-03-29T19:02:51.054Z,98.72
2023-03-29T19:05:17.624Z,98.63
2023-03-29T19:07:44.297Z,98.61
2023-03-29T19:10:12.042Z,98.40
2023-03-29T19:12:38.568Z,98.82
2023-03-29T19:15:05.641Z,99.02
2023-03-29T19:17:32.178Z,99.28
2023-03-29T19:19:58.800Z,99.46
2023-03-29T19:22:25.240Z,99.78
2023-03-29T19:24:51.577Z,100.00
2023-03-29T19:27:18.448Z,100.00
2023-03-29T19:29:44.828Z,100.00
2023-03-29T19:32:11.225Z,100.00
2023-03-29T19:34:37.572Z,100.00
2023-03-29T19:37:03.978Z,100.00
2023-03-29T19:39:30.476Z,100.00
2023-03-29T19:41:56.914Z,100.00
2023-03-29T19:44:23.566Z,100.00
2023-03-29T19:46:51.200Z,100.00
2023-03-29T19:49:17.642Z,100.00
2023-03-29T19:51:44.185Z,100.00
2023-03-29T19:54:13.732Z,100.00
2023-03-29T19:56:42.825Z,100.00
2023-03-29T19:59:11.113Z,100.00
2023-03-29T20:01:39.034Z,100.00
2023-03-29T20:04:05.571Z,100.00
2023-03-29T20:06:31.985Z,100.00
2023-03-29T20:08:58.811Z,100.00
2023-03-29T20:11:25.568Z,100.00
2023-03-29T20:13:52.270Z,100.00
2023-03-29T20:16:19.200Z,100.00
2023-03-29T20:18:46.481Z,100.00
2023-03-29T20:21:16.207Z,100.00
2023-03-29T20:23:42.710Z,100.00
2023-03-29T20:26:09.104Z,100.00
2023-03-29T20:28:37.529Z,100.00
2023-03-29T20:31:06.198Z,100.00
2023-03-29T20:33:33.488Z,100.00
2023-03-29T20:36:00.000Z,100.00
2023-03-29T20:38:26.600Z,100.00
2023-03-29T20:40:53.538Z,100.00
2023-03-29T20:43:20.179Z,100.00
2023-03-29T20:45:53.440Z,100.00
2023-03-29T20:48:22.820Z,100.00
2023-03-29T20:50:49.454Z,100.00
2023-03-29T20:53:16.361Z,100.00
2023-03-29T20:55:42.778Z,100.00
2023-03-29T20:58:09.421Z,100.00
2023-03-29T21:00:37.614Z,100.00
2023-03-29T21:03:04.206Z,100.00
2023-03-29T21:05:32.912Z,100.00
2023-03-29T21:07:59.966Z,100.00
2023-03-29T21:10:27.353Z,100.00
2023-03-29T21:12:54.281Z,100.00
2023-03-29T21:15:20.959Z,100.00
2023-03-29T21:17:47.552Z,100.00
2023-03-29T21:20:15.189Z,100.00
2023-03-29T21:22:45.540Z,100.00
2023-03-29T21:25:15.502Z,100.00
2023-03-29T21:27:42.099Z,100.00
2023-03-29T21:30:09.853Z,100.00
2023-03-29T21:32:36.611Z,100.00
2023-03-29T21:35:03.184Z,100.00
2023-03-29T21:37:29.559Z,100.00
2023-03-29T21:39:55.909Z,100.00
2023-03-29T21:42:22.257Z,100.00
2023-03-29T21:44:48.592Z,100.00
2023-03-29T21:47:14.961Z,100.00
2023-03-29T21:49:41.646Z,100.00
2023-03-29T21:52:08.023Z,100.00
2023-03-29T21:54:34.410Z,100.00
2023-03-29T21:57:01.198Z,100.00
2023-03-29T21:59:27.929Z,100.00
2023-03-29T22:01:54.344Z,100.00
2023-03-29T22:04:35.331Z,100.00
2023-03-29T22:07:03.060Z,100.00
2023-03-29T22:09:29.605Z,100.00
2023-03-29T22:11:56.770Z,100.00
2023-03-29T22:14:23.183Z,100.00
2023-03-29T22:16:49.567Z,100.00
2023-03-29T22:19:16.024Z,100.00
2023-03-29T22:21:42.495Z,100.00
2023-03-29T22:24:08.839Z,100.00
2023-03-29T22:26:35.466Z,100.00
2023-03-29T22:29:02.768Z,100.00
2023-03-29T22:31:31.244Z,100.00
2023-03-29T22:33:58.482Z,100.00
2023-03-29T22:36:27.600Z,100.00
2023-03-29T22:38:54.936Z,100.00
2023-03-29T22:41:23.780Z,100.00
2023-03-29T22:43:52.483Z,100.00
2023-03-29T22:46:19.898Z,100.00
2023-03-29T22:48:46.718Z,100.00
2023-03-29T22:51:13.219Z,100.00
2023-03-29T22:53:39.580Z,100.00
2023-03-29T22:56:07.447Z,100.00
2023-03-29T22:58:33.901Z,100.00
2023-03-29T23:01:00.423Z,100.00
2023-03-29T23:03:26.924Z,100.00
2023-03-29T23:05:55.668Z,100.00
2023-03-29T23:08:26.120Z,100.00
2023-03-29T23:10:52.753Z,99.68
2023-03-29T23:13:24.006Z,98.77
2023-03-29T23:15:50.792Z,98.08
2023-03-29T23:18:20.902Z,98.11
2023-03-29T23:20:48.980Z,97.68
2023-03-29T23:23:17.017Z,96.88
2023-03-29T23:25:45.571Z,96.54
2023-03-29T23:28:12.654Z,95.84
2023-03-29T23:30:39.431Z,95.54
2023-03-29T23:33:06.833Z,95.35
2023-03-29T23:35:33.441Z,95.23
2023-03-29T23:37:59.801Z,94.56
2023-03-29T23:40:27.665Z,94.32
2023-03-29T23:42:59.367Z,94.26
2023-03-29T23:45:29.284Z,94.02
2023-03-29T23:47:56.990Z,93.54
2023-03-29T23:50:23.703Z,93.96
2023-03-29T23:52:51.492Z,93.59
2023-03-29T23:55:18.435Z,93.69
2023-03-29T23:57:44.862Z,92.91
